Time;durP1;ratioP1;P1;durP2;ratioP2;P2;SDS_P1;SDS_P2;PMS_P1;PMS_P2;Temp;Humidity;BMP_temperature;BMP_pressure;BME280_temperature;BME280_humidity;BME280_pressure;Samples;Min_cycle;Max_cycle;Signal;HPM_P1;HPM_P2
2023/04/12 00:00:00;;;;;;;6.43;2.15;;;9.40;99.90;;;;;;5045382;28;20350;-80
2023/04/12 00:02:26;;;;;;;6.53;2.00;;;9.30;99.90;;;;;;5052183;28;20064;-82
2023/04/12 00:04:56;;;;;;;6.70;2.10;;;9.30;99.90;;;;;;5048651;28;20021;-84
2023/04/12 00:07:23;;;;;;;8.48;2.22;;;9.30;99.90;;;;;;5052944;28;20103;-81
2023/04/12 00:09:49;;;;;;;7.30;2.38;;;9.30;99.90;;;;;;5050043;28;20037;-84
2023/04/12 00:12:16;;;;;;;6.30;2.58;;;9.30;99.90;;;;;;5050593;28;20111;-84
2023/04/12 00:14:42;;;;;;;6.00;2.13;;;9.30;99.90;;;;;;5045712;28;20103;-73
2023/04/12 00:17:08;;;;;;;10.73;2.25;;;9.20;99.90;;;;;;5045660;28;20040;-84
2023/04/12 00:19:34;;;;;;;7.18;1.77;;;9.10;99.90;;;;;;5050666;28;20401;-83
2023/04/12 00:22:00;;;;;;;7.05;2.08;;;8.90;99.90;;;;;;5049432;28;20032;-85
2023/04/12 00:24:25;;;;;;;9.65;2.20;;;8.80;99.90;;;;;;5041068;28;20034;-84
2023/04/12 00:26:51;;;;;;;11.27;2.30;;;8.80;99.90;;;;;;5058835;28;20050;-83
2023/04/12 00:29:16;;;;;;;7.57;2.03;;;8.70;99.90;;;;;;5060325;28;20032;-84
2023/04/12 00:31:42;;;;;;;6.20;2.38;;;8.70;99.90;;;;;;5053925;28;20052;-83
2023/04/12 00:34:08;;;;;;;8.80;1.90;;;8.70;99.90;;;;;;5055207;28;20094;-84
2023/04/12 00:36:33;;;;;;;8.95;2.03;;;8.70;99.90;;;;;;5053410;28;20056;-79
2023/04/12 00:38:59;;;;;;;7.78;2.33;;;8.70;99.90;;;;;;5054360;28;20036;-85
2023/04/12 00:41:26;;;;;;;5.93;2.60;;;8.70;99.90;;;;;;5053923;28;20777;-83
2023/04/12 00:43:51;;;;;;;5.57;2.00;;;8.50;99.90;;;;;;5053553;28;20661;-85
2023/04/12 00:46:18;;;;;;;7.03;2.38;;;8.30;99.90;;;;;;5052449;28;20029;-85
2023/04/12 00:48:46;;;;;;;11.00;1.92;;;8.20;99.90;;;;;;5042025;28;20083;-85
2023/04/12 00:51:13;;;;;;;9.10;2.25;;;8.00;99.90;;;;;;5053719;28;20484;-83
2023/04/12 00:53:40;;;;;;;7.10;2.25;;;7.80;99.90;;;;;;5053426;28;20082;-84
2023/04/12 00:56:06;;;;;;;6.28;2.33;;;7.70;99.90;;;;;;5062926;28;20078;-84
2023/04/12 00:58:32;;;;;;;11.23;2.22;;;7.60;99.90;;;;;;5061069;28;20020;-71
2023/04/12 01:00:57;;;;;;;6.45;2.20;;;7.50;99.90;;;;;;5060194;28;20116;-85
2023/04/12 01:03:26;;;;;;;4.72;1.98;;;7.40;99.90;;;;;;5054543;28;20526;-84
2023/04/12 01:05:54;;;;;;;8.10;2.10;;;7.30;99.90;;;;;;5053855;28;20025;-85
2023/04/12 01:08:34;;;;;;;7.35;1.90;;;7.30;99.90;;;;;;5042940;28;20037;-80
2023/04/12 01:11:11;;;;;;;4.67;2.03;;;7.20;99.90;;;;;;5053566;28;20761;-84
2023/04/12 01:14:20;;;;;;;11.27;2.17;;;7.10;99.90;;;;;;5052910;28;20104;-84
2023/04/12 01:16:55;;;;;;;7.38;1.90;;;7.10;99.90;;;;;;5051554;28;20067;-78
2023/04/12 01:19:35;;;;;;;7.10;2.10;;;7.10;99.90;;;;;;5043277;28;20095;-83
2023/04/12 01:22:12;;;;;;;8.98;2.05;;;7.00;99.90;;;;;;5040951;28;20580;-81
2023/04/12 01:25:15;;;;;;;4.78;2.10;;;7.00;99.90;;;;;;5052820;28;20025;-84
2023/04/12 01:27:43;;;;;;;5.50;2.17;;;7.00;99.90;;;;;;5052212;28;20029;-85
2023/04/12 01:30:12;;;;;;;7.28;2.50;;;7.00;99.90;;;;;;5053166;28;20135;-85
2023/04/12 01:32:42;;;;;;;5.75;2.42;;;7.00;99.90;;;;;;5052407;28;20049;-84
2023/04/12 01:35:09;;;;;;;10.02;2.95;;;7.00;99.90;;;;;;5053778;28;20029;-85
2023/04/12 01:37:36;;;;;;;10.30;2.72;;;7.00;99.90;;;;;;5040580;28;20049;-84
2023/04/12 01:40:04;;;;;;;8.00;2.53;;;7.00;99.90;;;;;;5053202;28;20025;-87
2023/04/12 01:42:30;;;;;;;9.40;2.70;;;6.90;99.90;;;;;;5053384;28;20474;-87
2023/04/12 01:44:57;;;;;;;7.05;2.33;;;6.90;99.90;;;;;;5052741;28;20044;-87
2023/04/12 01:47:22;;;;;;;10.48;2.80;;;6.90;99.90;;;;;;5051719;28;20040;-84
2023/04/12 01:49:58;;;;;;;7.20;2.17;;;6.80;99.90;;;;;;5052486;28;20025;-86
2023/04/12 01:52:29;;;;;;;7.85;3.00;;;6.80;99.90;;;;;;5052814;28;20028;-86
2023/04/12 01:54:57;;;;;;;9.38;2.70;;;6.80;99.90;;;;;;5046108;28;20495;-86
2023/04/12 01:57:25;;;;;;;9.77;2.45;;;6.70;99.90;;;;;;5057809;28;20037;-85
2023/04/12 01:59:53;;;;;;;7.25;2.28;;;6.80;99.90;;;;;;5052738;28;20021;-86
2023/04/12 02:02:19;;;;;;;8.48;2.50;;;6.70;99.90;;;;;;5052796;28;20027;-86
2023/04/12 02:04:46;;;;;;;9.80;2.97;;;6.70;99.90;;;;;;5052095;28;20025;-87
2023/04/12 02:07:14;;;;;;;6.88;2.33;;;6.70;99.90;;;;;;5063052;28;20040;-85
2023/04/12 02:09:40;;;;;;;9.93;2.88;;;6.70;99.90;;;;;;5043520;28;20056;-83
2023/04/12 02:12:06;;;;;;;9.43;2.72;;;6.70;99.90;;;;;;5046365;28;20025;-85
2023/04/12 02:14:32;;;;;;;9.05;2.67;;;6.70;99.90;;;;;;5056361;28;20096;-75
2023/04/12 02:17:00;;;;;;;7.28;3.03;;;6.60;99.90;;;;;;5052758;28;20052;-84
2023/04/12 02:19:26;;;;;;;12.82;2.65;;;6.60;99.90;;;;;;5059107;28;20021;-82
2023/04/12 02:21:52;;;;;;;6.50;2.53;;;6.60;99.90;;;;;;5063352;28;20851;-82
2023/04/12 02:24:18;;;;;;;7.40;2.42;;;6.60;99.90;;;;;;5063557;28;20029;-81
2023/04/12 02:26:45;;;;;;;10.15;2.92;;;6.60;99.90;;;;;;5052736;28;20037;-82
2023/04/12 02:29:11;;;;;;;13.95;3.35;;;6.60;99.90;;;;;;5062929;28;20033;-81
2023/04/12 02:31:37;;;;;;;7.30;2.90;;;6.60;99.90;;;;;;5062535;28;20036;-74
2023/04/12 02:34:04;;;;;;;7.20;2.80;;;6.50;99.90;;;;;;5064054;28;20029;-82
2023/04/12 02:36:29;;;;;;;9.15;2.97;;;6.50;99.90;;;;;;5058647;28;20057;-84
2023/04/12 02:38:55;;;;;;;10.32;2.95;;;6.60;99.90;;;;;;5071954;28;20095;-85
2023/04/12 02:41:21;;;;;;;11.60;3.58;;;6.60;99.90;;;;;;5072232;28;20459;-84
2023/04/12 02:43:47;;;;;;;7.78;3.00;;;6.50;99.90;;;;;;5071783;28;20433;-83
2023/04/12 02:46:21;;;;;;;6.32;2.95;;;6.50;99.90;;;;;;5059877;28;20143;-85
2023/04/12 02:48:47;;;;;;;6.75;3.08;;;6.50;99.90;;;;;;5058844;28;20036;-85
2023/04/12 02:51:13;;;;;;;9.85;3.25;;;6.50;99.90;;;;;;5070644;28;20029;-83
2023/04/12 02:53:39;;;;;;;13.65;3.83;;;6.50;99.90;;;;;;5068080;28;20032;-85
2023/04/12 02:56:05;;;;;;;7.40;3.10;;;6.50;99.90;;;;;;5078139;28;20073;-84
2023/04/12 02:58:32;;;;;;;5.80;2.97;;;6.50;99.90;;;;;;5064101;28;20032;-82
2023/04/12 03:00:59;;;;;;;6.95;3.47;;;6.50;99.90;;;;;;5066104;28;20126;-85
2023/04/12 03:03:27;;;;;;;9.65;3.30;;;6.50;99.90;;;;;;5061953;28;20028;-84
2023/04/12 03:05:53;;;;;;;8.07;3.50;;;6.50;99.90;;;;;;5071995;28;20032;-85
2023/04/12 03:08:19;;;;;;;6.50;3.35;;;6.50;99.90;;;;;;5083618;28;20357;-85
2023/04/12 03:10:44;;;;;;;9.93;3.30;;;6.50;99.90;;;;;;5069841;28;20033;-85
2023/04/12 03:13:10;;;;;;;10.68;3.67;;;6.50;99.90;;;;;;5071398;28;20020;-86
2023/04/12 03:15:36;;;;;;;11.45;3.47;;;6.40;99.90;;;;;;5053260;28;20471;-73
2023/04/12 03:18:02;;;;;;;8.20;3.92;;;6.40;99.90;;;;;;5071265;28;20471;-86
2023/04/12 03:20:28;;;;;;;7.47;3.80;;;6.40;99.90;;;;;;5061594;28;20032;-85
2023/04/12 03:22:54;;;;;;;6.60;3.80;;;6.50;99.90;;;;;;5070714;28;20025;-85
2023/04/12 03:25:19;;;;;;;12.00;3.60;;;6.50;99.90;;;;;;5071050;28;20036;-85
2023/04/12 03:27:45;;;;;;;6.82;4.20;;;6.50;99.90;;;;;;5070135;28;20028;-85
2023/04/12 03:30:11;;;;;;;14.60;4.65;;;6.50;99.90;;;;;;5071041;28;20036;-85
2023/04/12 03:32:38;;;;;;;6.05;3.92;;;6.50;99.90;;;;;;5070285;28;20039;-74
2023/04/12 03:35:06;;;;;;;8.05;4.38;;;6.50;99.90;;;;;;5063489;28;20028;-76
2023/04/12 03:37:32;;;;;;;8.55;3.97;;;6.50;99.90;;;;;;5069476;28;20056;-82
2023/04/12 03:39:58;;;;;;;9.73;4.47;;;6.40;99.90;;;;;;5070922;28;20107;-84
2023/04/12 03:42:24;;;;;;;7.68;4.20;;;6.40;99.90;;;;;;5070450;28;20108;-83
2023/04/12 03:44:51;;;;;;;9.02;4.15;;;6.40;99.90;;;;;;5056658;28;20052;-81
2023/04/12 03:47:17;;;;;;;10.75;4.78;;;6.40;99.90;;;;;;5070357;28;20029;-81
2023/04/12 03:49:43;;;;;;;13.73;4.85;;;6.40;99.90;;;;;;5070399;28;20485;-84
2023/04/12 03:52:08;;;;;;;9.38;4.28;;;6.40;99.90;;;;;;5062678;28;20029;-82
2023/04/12 03:54:34;;;;;;;11.35;4.72;;;6.40;99.90;;;;;;5060319;28;20063;-83
2023/04/12 03:57:00;;;;;;;7.43;4.35;;;6.40;99.90;;;;;;5079443;28;20043;-82
2023/04/12 03:59:27;;;;;;;9.15;4.22;;;6.40;99.90;;;;;;5073692;28;20357;-82
2023/04/12 04:01:53;;;;;;;7.88;4.43;;;6.40;99.90;;;;;;5073523;28;20082;-81
2023/04/12 04:04:19;;;;;;;11.02;4.47;;;6.40;99.90;;;;;;5074551;28;20443;-82
2023/04/12 04:06:45;;;;;;;6.60;4.25;;;6.40;99.90;;;;;;5082690;28;20035;-83
2023/04/12 04:09:11;;;;;;;11.65;4.65;;;6.40;99.90;;;;;;5077117;28;20107;-80
2023/04/12 04:11:37;;;;;;;9.60;4.57;;;6.40;99.90;;;;;;5063341;28;20107;-72
2023/04/12 04:14:02;;;;;;;8.68;5.03;;;6.40;99.90;;;;;;5075099;28;20095;-83
2023/04/12 04:16:29;;;;;;;9.40;4.97;;;6.40;99.90;;;;;;5074415;28;20028;-83
2023/04/12 04:18:55;;;;;;;9.52;4.22;;;6.40;99.90;;;;;;5073176;28;20025;-84
2023/04/12 04:21:21;;;;;;;10.65;4.85;;;6.50;99.90;;;;;;5068765;28;20032;-84
2023/04/12 04:23:47;;;;;;;11.82;5.03;;;6.50;99.90;;;;;;5065916;28;20025;-85
2023/04/12 04:26:14;;;;;;;14.77;5.00;;;6.50;99.90;;;;;;5069017;28;20047;-85
2023/04/12 04:28:43;;;;;;;7.78;4.57;;;6.50;99.90;;;;;;5060391;28;20036;-84
2023/04/12 04:31:10;;;;;;;8.05;4.55;;;6.50;99.90;;;;;;5056141;28;20028;-81
2023/04/12 04:33:36;;;;;;;9.55;4.50;;;6.50;99.90;;;;;;5074785;28;20431;-75
2023/04/12 04:36:06;;;;;;;10.27;4.80;;;6.50;99.90;;;;;;5073050;28;20055;-82
2023/04/12 04:38:32;;;;;;;12.63;4.78;;;6.50;99.90;;;;;;5074009;28;20634;-82
2023/04/12 04:41:01;;;;;;;9.80;4.95;;;6.50;99.90;;;;;;5073125;28;20029;-83
2023/04/12 04:43:34;;;;;;;11.43;6.00;;;6.50;99.90;;;;;;5074707;28;20043;-84
2023/04/12 04:45:59;;;;;;;6.50;4.13;;;6.50;99.90;;;;;;5063196;28;20096;-81
2023/04/12 04:48:25;;;;;;;7.82;4.13;;;6.50;99.90;;;;;;5074125;28;20056;-81
2023/04/12 04:50:52;;;;;;;4.28;3.42;;;6.50;99.90;;;;;;5073333;28;20044;-81
2023/04/12 04:53:19;;;;;;;8.73;3.90;;;6.50;99.90;;;;;;5074820;28;20032;-83
2023/04/12 04:55:46;;;;;;;5.82;3.40;;;6.50;99.90;;;;;;5067712;28;20028;-81
2023/04/12 04:58:12;;;;;;;9.13;4.05;;;6.50;99.90;;;;;;5073865;28;20054;-82
2023/04/12 05:00:38;;;;;;;6.20;4.15;;;6.50;99.90;;;;;;5075626;28;20025;-72
2023/04/12 05:03:03;;;;;;;7.40;4.57;;;6.50;99.90;;;;;;5081956;28;20385;-80
2023/04/12 05:05:29;;;;;;;7.88;4.10;;;6.50;99.90;;;;;;5066343;28;20481;-82
2023/04/12 05:07:56;;;;;;;10.40;4.82;;;6.50;99.90;;;;;;5077839;28;20039;-82
2023/04/12 05:10:21;;;;;;;8.52;4.40;;;6.50;99.90;;;;;;5073099;28;20041;-83
2023/04/12 05:12:47;;;;;;;7.10;4.50;;;6.50;99.90;;;;;;5072742;28;20061;-82
2023/04/12 05:15:13;;;;;;;6.80;5.13;;;6.50;99.90;;;;;;5073757;28;20029;-83
2023/04/12 05:17:39;;;;;;;9.40;5.22;;;6.50;99.90;;;;;;5073683;28;20089;-72
2023/04/12 05:20:07;;;;;;;7.68;5.13;;;6.50;99.90;;;;;;5073465;28;20028;-83
2023/04/12 05:22:33;;;;;;;9.65;5.13;;;6.60;99.90;;;;;;5052757;28;20067;-82
2023/04/12 05:24:59;;;;;;;9.35;5.55;;;6.60;99.90;;;;;;5061106;28;20048;-84
2023/04/12 05:27:26;;;;;;;10.95;5.22;;;6.60;99.90;;;;;;5072898;28;20033;-83
2023/04/12 05:29:55;;;;;;;6.60;4.90;;;6.60;99.90;;;;;;5073205;28;20052;-82
2023/04/12 05:32:21;;;;;;;7.18;4.70;;;6.70;99.90;;;;;;5062578;28;20368;-84
2023/04/12 05:34:46;;;;;;;7.75;4.32;;;6.70;99.90;;;;;;5076671;28;20043;-83
2023/04/12 05:37:12;;;;;;;9.35;4.75;;;6.70;99.90;;;;;;5064301;28;20079;-85
2023/04/12 05:39:38;;;;;;;8.25;5.20;;;6.70;99.90;;;;;;5053088;28;20049;-73
2023/04/12 05:42:04;;;;;;;9.52;4.40;;;6.70;99.90;;;;;;5051907;28;20051;-84
2023/04/12 05:44:29;;;;;;;8.30;4.82;;;6.70;99.90;;;;;;5053137;28;20108;-84
2023/04/12 05:46:55;;;;;;;8.82;5.05;;;6.70;99.90;;;;;;5051435;28;20048;-83
2023/04/12 05:49:20;;;;;;;9.52;4.97;;;6.80;99.90;;;;;;5040705;28;20041;-81
2023/04/12 05:51:46;;;;;;;10.00;4.75;;;6.80;99.90;;;;;;5050672;28;20064;-75
2023/04/12 05:54:11;;;;;;;6.80;3.97;;;6.80;99.90;;;;;;5049181;28;20029;-80
2023/04/12 05:56:38;;;;;;;7.65;4.60;;;6.80;99.90;;;;;;5050005;28;20025;-72
2023/04/12 05:59:04;;;;;;;9.52;4.38;;;6.90;99.90;;;;;;5051954;28;20053;-81
2023/04/12 06:01:31;;;;;;;12.30;4.60;;;6.90;99.90;;;;;;5051898;28;20418;-81
2023/04/12 06:03:58;;;;;;;12.35;4.80;;;6.90;99.90;;;;;;5053947;28;20036;-79
2023/04/12 06:06:23;;;;;;;6.57;4.43;;;6.90;99.90;;;;;;5047630;28;20040;-78
2023/04/12 06:08:49;;;;;;;11.27;4.30;;;7.00;99.90;;;;;;5040304;28;20377;-82
2023/04/12 06:11:15;;;;;;;9.02;3.75;;;6.90;99.90;;;;;;5033542;28;20020;-80
2023/04/12 06:13:40;;;;;;;7.65;3.97;;;7.00;99.90;;;;;;5050391;28;20060;-74
2023/04/12 06:16:06;;;;;;;5.03;4.00;;;7.00;99.90;;;;;;5050810;28;20020;-79
2023/04/12 06:18:32;;;;;;;7.43;3.90;;;7.00;99.90;;;;;;5048502;28;20549;-77
2023/04/12 06:20:59;;;;;;;5.60;3.65;;;7.10;99.90;;;;;;5049655;28;20091;-75
2023/04/12 06:23:24;;;;;;;11.15;4.57;;;7.10;99.90;;;;;;5051610;28;20028;-72
2023/04/12 06:25:52;;;;;;;7.97;3.65;;;7.10;99.90;;;;;;5040775;28;20124;-72
2023/04/12 06:28:17;;;;;;;9.23;4.13;;;7.10;99.90;;;;;;5039356;28;20469;-70
2023/04/12 06:30:43;;;;;;;5.00;3.10;;;7.10;99.90;;;;;;5053487;28;20040;-71
2023/04/12 06:33:10;;;;;;;8.18;3.83;;;7.20;99.90;;;;;;5033821;28;20053;-74
2023/04/12 06:36:15;;;;;;;7.25;3.78;;;7.20;99.90;;;;;;5055719;28;20048;-78
2023/04/12 06:38:40;;;;;;;5.78;3.83;;;7.30;99.90;;;;;;5083100;28;20409;-72
2023/04/12 06:41:06;;;;;;;8.52;4.28;;;7.30;99.90;;;;;;5076522;28;20028;-71
2023/04/12 06:43:32;;;;;;;4.50;3.35;;;7.40;99.90;;;;;;5052244;28;20029;-72
2023/04/12 06:45:58;;;;;;;5.60;3.58;;;7.40;99.90;;;;;;5066223;28;20043;-72
2023/04/12 06:48:24;;;;;;;6.13;3.40;;;7.50;99.90;;;;;;5059527;28;20063;-74
2023/04/12 06:50:50;;;;;;;5.95;3.40;;;7.50;99.90;;;;;;5072698;28;20109;-77
2023/04/12 06:53:15;;;;;;;5.95;2.90;;;7.60;99.90;;;;;;5070361;28;20033;-76
2023/04/12 06:55:41;;;;;;;6.25;3.58;;;7.60;99.90;;;;;;5063468;28;20467;-69
2023/04/12 06:58:06;;;;;;;3.65;2.83;;;7.60;99.90;;;;;;5070156;28;20074;-76
2023/04/12 07:00:32;;;;;;;6.32;3.75;;;7.60;99.90;;;;;;5059644;28;20147;-76
2023/04/12 07:02:58;;;;;;;5.43;2.97;;;7.70;99.90;;;;;;5069697;28;20107;-76
2023/04/12 07:05:23;;;;;;;4.88;2.70;;;7.70;99.90;;;;;;5065883;28;20025;-77
2023/04/12 07:07:49;;;;;;;5.95;2.78;;;7.80;99.90;;;;;;5065472;28;20393;-71
2023/04/12 07:10:15;;;;;;;9.75;3.25;;;7.80;99.90;;;;;;5070244;28;20036;-76
2023/04/12 07:12:41;;;;;;;5.97;3.00;;;7.80;99.90;;;;;;5068827;28;20021;-69
2023/04/12 07:15:07;;;;;;;6.40;3.00;;;7.80;99.90;;;;;;5069760;28;20099;-75
2023/04/12 07:17:33;;;;;;;3.78;2.63;;;7.80;99.90;;;;;;5068941;28;20087;-76
2023/04/12 07:19:58;;;;;;;4.15;2.63;;;8.00;99.90;;;;;;5072463;28;20359;-77
2023/04/12 07:22:24;;;;;;;5.38;3.03;;;8.00;99.90;;;;;;5068937;28;20021;-75
2023/04/12 07:24:50;;;;;;;4.05;2.88;;;8.10;99.90;;;;;;5069375;28;20419;-74
2023/04/12 07:27:15;;;;;;;5.25;2.97;;;8.10;99.90;;;;;;5072141;28;20054;-73
2023/04/12 07:29:41;;;;;;;6.90;3.22;;;8.20;99.90;;;;;;5070735;28;20032;-72
2023/04/12 07:32:08;;;;;;;3.25;2.38;;;8.20;99.90;;;;;;5069757;28;20467;-72
2023/04/12 07:34:35;;;;;;;2.95;2.22;;;8.30;99.90;;;;;;5078534;28;20028;-73
2023/04/12 07:37:01;;;;;;;7.35;3.28;;;8.40;99.90;;;;;;5069339;28;20071;-75
2023/04/12 07:39:28;;;;;;;3.88;2.40;;;8.40;99.90;;;;;;5064465;28;20032;-73
2023/04/12 07:41:54;;;;;;;3.45;2.25;;;8.50;99.90;;;;;;5069877;28;20024;-75
2023/04/12 07:44:20;;;;;;;4.10;2.08;;;8.50;99.90;;;;;;5070840;28;20028;-74
2023/04/12 07:46:46;;;;;;;2.35;2.10;;;8.50;99.90;;;;;;5069862;28;20051;-75
2023/04/12 07:49:12;;;;;;;3.72;2.13;;;8.60;99.90;;;;;;5072083;28;20029;-76
2023/04/12 07:51:37;;;;;;;3.33;2.10;;;8.70;99.90;;;;;;5070464;28;20473;-67
2023/04/12 07:54:03;;;;;;;3.22;2.08;;;8.70;99.90;;;;;;5063511;28;20040;-75
2023/04/12 07:56:29;;;;;;;3.83;2.00;;;8.80;99.90;;;;;;5069815;28;20457;-75
2023/04/12 07:58:55;;;;;;;4.43;1.80;;;8.80;99.90;;;;;;5070930;28;20021;-74
2023/04/12 08:01:20;;;;;;;6.10;1.83;;;8.80;99.90;;;;;;5069862;28;20090;-77
2023/04/12 08:03:46;;;;;;;4.82;2.08;;;8.90;99.90;;;;;;5069146;28;20025;-72
2023/04/12 08:06:12;;;;;;;2.67;1.75;;;8.90;99.90;;;;;;5068580;28;20044;-71
2023/04/12 08:08:37;;;;;;;3.13;2.17;;;8.90;99.90;;;;;;5070268;28;20041;-69
2023/04/12 08:11:05;;;;;;;2.47;1.80;;;8.90;99.90;;;;;;5076855;28;20031;-73
2023/04/12 08:13:31;;;;;;;4.43;2.42;;;9.00;99.90;;;;;;5068381;28;20033;-72
2023/04/12 08:15:57;;;;;;;4.70;2.20;;;9.10;99.90;;;;;;5071032;28;20640;-75
2023/04/12 08:18:23;;;;;;;2.78;1.50;;;9.20;99.90;;;;;;5074944;28;20044;-73
2023/04/12 08:20:48;;;;;;;2.25;1.50;;;9.30;99.90;;;;;;5068902;28;20473;-72
2023/04/12 08:23:14;;;;;;;3.75;1.95;;;9.30;99.90;;;;;;5073680;28;20032;-72
2023/04/12 08:25:40;;;;;;;3.80;1.70;;;9.40;99.90;;;;;;5068762;28;20367;-68
2023/04/12 08:28:07;;;;;;;2.50;1.70;;;9.40;99.90;;;;;;5069806;28;20044;-75
2023/04/12 08:30:33;;;;;;;3.08;1.65;;;9.40;99.90;;;;;;5067549;28;20025;-73
2023/04/12 08:32:58;;;;;;;1.60;1.50;;;9.40;99.90;;;;;;5068334;28;20601;-73
2023/04/12 08:35:24;;;;;;;4.88;1.30;;;9.50;99.90;;;;;;5073041;28;20063;-73
2023/04/12 08:37:50;;;;;;;3.63;1.55;;;9.50;99.90;;;;;;5068173;28;20064;-73
2023/04/12 08:40:16;;;;;;;6.60;1.80;;;9.60;99.90;;;;;;5069879;28;20524;-73
2023/04/12 08:42:42;;;;;;;2.17;1.50;;;9.60;99.90;;;;;;5068639;28;20033;-71
2023/04/12 08:45:12;;;;;;;4.55;1.77;;;9.60;99.90;;;;;;5080608;28;20028;-72
2023/04/12 08:47:43;;;;;;;6.50;1.98;;;9.70;99.90;;;;;;5069879;28;20401;-68
2023/04/12 08:50:12;;;;;;;2.17;1.27;;;9.70;99.90;;;;;;5073459;28;20115;-73
2023/04/12 08:52:38;;;;;;;8.53;1.40;;;9.80;99.90;;;;;;5069316;28;20400;-67
2023/04/12 08:55:08;;;;;;;2.35;1.70;;;9.80;99.90;;;;;;5082126;28;20100;-75
2023/04/12 08:57:35;;;;;;;4.40;1.75;;;9.90;99.90;;;;;;5072857;28;20059;-74
2023/04/12 09:00:02;;;;;;;4.63;2.05;;;10.00;99.90;;;;;;5078567;28;20797;-74
2023/04/12 09:02:28;;;;;;;3.05;1.58;;;10.00;99.90;;;;;;5068380;28;20554;-74
2023/04/12 09:04:54;;;;;;;4.38;1.75;;;10.00;99.90;;;;;;5047762;28;20029;-74
2023/04/12 09:07:26;;;;;;;4.18;1.40;;;10.00;99.90;;;;;;5073342;28;20037;-75
2023/04/12 09:09:52;;;;;;;2.38;1.80;;;10.10;99.90;;;;;;5077913;28;20040;-74
2023/04/12 09:12:21;;;;;;;3.63;1.70;;;10.10;99.90;;;;;;5071059;28;20031;-74
2023/04/12 09:14:46;;;;;;;3.15;1.40;;;10.20;99.90;;;;;;5072262;28;20032;-74
2023/04/12 09:17:26;;;;;;;4.32;1.30;;;10.10;99.90;;;;;;5076053;28;20044;-75
2023/04/12 09:19:53;;;;;;;1.92;1.70;;;10.20;99.90;;;;;;5067140;28;20043;-74
2023/04/12 09:22:35;;;;;;;4.07;1.70;;;10.10;99.90;;;;;;5084788;28;20021;-74
2023/04/12 09:25:01;;;;;;;2.70;1.58;;;10.20;99.90;;;;;;5078636;28;20032;-73
2023/04/12 09:27:28;;;;;;;3.17;1.90;;;10.30;99.90;;;;;;5067563;28;20040;-68
2023/04/12 09:30:07;;;;;;;2.42;1.27;;;10.40;99.90;;;;;;5075348;28;20076;-73
2023/04/12 09:32:33;;;;;;;4.15;1.48;;;10.60;99.90;;;;;;5072094;28;20074;-73
2023/04/12 09:35:04;;;;;;;4.97;1.92;;;10.80;99.90;;;;;;5071788;28;20032;-74
2023/04/12 09:37:30;;;;;;;5.03;2.17;;;11.00;99.90;;;;;;5066205;28;20048;-74
2023/04/12 09:40:03;;;;;;;6.88;1.90;;;11.20;99.90;;;;;;5071759;28;20099;-75
2023/04/12 09:42:29;;;;;;;3.80;1.80;;;11.30;99.90;;;;;;5081408;28;20040;-77
2023/04/12 09:44:56;;;;;;;6.68;1.80;;;11.40;99.90;;;;;;5078454;28;20065;-73
2023/04/12 09:47:36;;;;;;;4.57;1.70;;;11.50;99.90;;;;;;5076175;28;20028;-73
2023/04/12 09:50:03;;;;;;;4.55;1.77;;;11.50;99.90;;;;;;5071556;28;20143;-71
2023/04/12 09:52:36;;;;;;;2.97;1.58;;;11.60;99.90;;;;;;5082488;28;20029;-73
2023/04/12 09:55:08;;;;;;;7.72;1.48;;;11.70;99.90;;;;;;5080175;28;20121;-71
2023/04/12 09:57:36;;;;;;;5.25;1.80;;;11.70;99.90;;;;;;5082516;28;20068;-73
2023/04/12 10:00:04;;;;;;;3.67;1.40;;;11.80;99.90;;;;;;5077263;28;20032;-74
2023/04/12 10:02:30;;;;;;;4.78;1.80;;;11.80;99.90;;;;;;5085808;28;20053;-71
2023/04/12 10:04:56;;;;;;;6.15;1.50;;;11.90;99.90;;;;;;5075737;28;20123;-75
2023/04/12 10:07:22;;;;;;;3.40;1.63;;;11.90;99.90;;;;;;5076937;28;20461;-80
2023/04/12 10:09:48;;;;;;;3.97;2.05;;;12.00;99.90;;;;;;5076969;28;20051;-74
2023/04/12 10:12:14;;;;;;;5.85;1.90;;;12.10;99.90;;;;;;5071280;28;20043;-73
2023/04/12 10:14:42;;;;;;;3.45;1.45;;;12.20;99.90;;;;;;5084041;28;20456;-69
2023/04/12 10:17:09;;;;;;;2.45;1.65;;;12.50;99.90;;;;;;5077885;28;20481;-75
2023/04/12 10:19:38;;;;;;;4.72;1.70;;;12.70;99.90;;;;;;5077837;28;20392;-74
2023/04/12 10:22:03;;;;;;;6.82;1.63;;;12.90;99.90;;;;;;5079351;28;20038;-74
2023/04/12 10:24:30;;;;;;;1.98;1.08;;;13.10;99.90;;;;;;5073049;28;20924;-75
2023/04/12 10:27:01;;;;;;;3.30;1.73;;;13.30;99.90;;;;;;5070524;28;20067;-75
2023/04/12 10:29:35;;;;;;;4.50;1.42;;;13.30;99.90;;;;;;5070888;28;20040;-74
2023/04/12 10:32:22;;;;;;;5.60;1.85;;;13.50;99.90;;;;;;5073401;28;20157;-73
2023/04/12 10:34:52;;;;;;;3.33;1.80;;;13.60;99.90;;;;;;5085540;28;20023;-73
2023/04/12 10:37:18;;;;;;;4.93;1.52;;;13.70;99.90;;;;;;5072868;28;20044;-74
2023/04/12 10:39:51;;;;;;;4.70;1.65;;;14.00;99.90;;;;;;5059787;28;20108;-73
2023/04/12 10:42:29;;;;;;;3.70;1.80;;;14.20;99.90;;;;;;5053979;28;20385;-74
2023/04/12 10:45:16;;;;;;;3.05;1.50;;;14.20;99.90;;;;;;5067595;28;20025;-75
2023/04/12 10:47:47;;;;;;;4.97;1.55;;;14.30;99.90;;;;;;5072795;28;20444;-70
2023/04/12 10:50:30;;;;;;;3.97;1.23;;;14.50;99.90;;;;;;5064992;28;20364;-75
2023/04/12 10:53:14;;;;;;;5.35;1.48;;;14.50;99.90;;;;;;5069620;28;20028;-75
2023/04/12 10:55:41;;;;;;;1.58;1.02;;;14.50;99.90;;;;;;5074773;28;20029;-67
2023/04/12 10:58:08;;;;;;;3.47;1.40;;;14.40;99.90;;;;;;5069166;28;20036;-74
2023/04/12 11:00:55;;;;;;;2.45;1.17;;;14.40;99.90;;;;;;5073413;28;20088;-77
2023/04/12 11:03:21;;;;;;;3.97;1.75;;;14.50;99.90;;;;;;5071997;28;20037;-75
2023/04/12 11:06:01;;;;;;;2.17;0.98;;;14.50;99.90;;;;;;5069153;28;20031;-71
2023/04/12 11:08:28;;;;;;;2.72;1.27;;;14.60;99.90;;;;;;5070300;28;20036;-75
2023/04/12 11:11:16;;;;;;;3.65;1.45;;;14.60;99.90;;;;;;5061542;28;20036;-75
2023/04/12 11:13:42;;;;;;;3.63;1.50;;;14.70;99.90;;;;;;5061859;28;20500;-69
2023/04/12 11:16:13;;;;;;;7.07;1.65;;;15.00;99.90;;;;;;5067325;28;20025;-74
2023/04/12 11:18:38;;;;;;;5.70;1.60;;;15.10;99.90;;;;;;5062208;28;20037;-69
2023/04/12 11:21:05;;;;;;;3.35;1.48;;;15.40;99.90;;;;;;5078030;28;20376;-75
2023/04/12 11:23:31;;;;;;;3.75;1.17;;;15.40;99.90;;;;;;5077195;28;20025;-75
2023/04/12 11:25:58;;;;;;;3.13;1.48;;;15.30;99.90;;;;;;5063927;28;20032;-75
2023/04/12 11:28:25;;;;;;;3.67;1.48;;;15.10;99.90;;;;;;5071381;28;20036;-76
2023/04/12 11:30:57;;;;;;;4.97;1.30;;;14.90;99.90;;;;;;5073494;28;20043;-75
2023/04/12 11:33:38;;;;;;;2.75;1.20;;;14.90;99.90;;;;;;5073528;28;20029;-75
2023/04/12 11:36:06;;;;;;;1.75;0.90;;;14.80;99.90;;;;;;5075737;28;20059;-75
2023/04/12 11:38:33;;;;;;;3.25;1.08;;;14.70;99.90;;;;;;5077721;28;20408;-74
2023/04/12 11:40:59;;;;;;;2.45;1.10;;;14.60;99.90;;;;;;5069381;28;20056;-76
2023/04/12 11:43:25;;;;;;;3.60;1.20;;;14.60;99.90;;;;;;5070823;28;20519;-76
2023/04/12 11:45:58;;;;;;;1.88;0.82;;;14.70;99.90;;;;;;5077576;28;20107;-75
2023/04/12 11:48:25;;;;;;;1.73;1.20;;;14.80;99.90;;;;;;5070605;28;20039;-76
2023/04/12 11:50:51;;;;;;;1.65;0.90;;;14.80;99.90;;;;;;5078945;28;20131;-75
2023/04/12 11:53:18;;;;;;;2.28;1.17;;;14.80;99.90;;;;;;5069594;28;20446;-75
2023/04/12 11:55:53;;;;;;;0.90;0.70;;;14.90;99.90;;;;;;5069228;28;20044;-74
2023/04/12 11:58:22;;;;;;;1.33;0.68;;;15.00;99.90;;;;;;5070544;28;20480;-75
2023/04/12 12:00:49;;;;;;;2.80;0.80;;;15.00;99.90;;;;;;5066673;28;20128;-76
2023/04/12 12:03:15;;;;;;;1.67;0.75;;;15.20;99.90;;;;;;5075632;28;20033;-74
2023/04/12 12:05:41;;;;;;;2.22;0.95;;;15.20;99.90;;;;;;5072327;28;20338;-68
2023/04/12 12:08:07;;;;;;;2.58;1.23;;;15.20;99.90;;;;;;5070939;28;20072;-70
2023/04/12 12:10:38;;;;;;;1.08;0.68;;;15.30;99.90;;;;;;5076865;28;20487;-75
2023/04/12 12:13:10;;;;;;;2.30;0.70;;;15.30;99.90;;;;;;5070170;28;20021;-73
2023/04/12 12:15:35;;;;;;;0.98;0.60;;;15.40;99.90;;;;;;5065594;28;20032;-74
2023/04/12 12:18:01;;;;;;;3.05;0.95;;;15.50;99.90;;;;;;5049058;28;20098;-75
2023/04/12 12:20:27;;;;;;;1.73;0.75;;;15.70;99.90;;;;;;5072578;28;20064;-73
2023/04/12 12:22:53;;;;;;;1.15;0.80;;;15.80;99.90;;;;;;5071131;28;20036;-74
2023/04/12 12:25:19;;;;;;;3.08;1.63;;;15.90;99.90;;;;;;5071941;28;20526;-76
2023/04/12 12:27:49;;;;;;;1.48;0.73;;;15.90;99.90;;;;;;5071329;28;20028;-72
2023/04/12 12:30:19;;;;;;;1.35;0.80;;;16.10;99.90;;;;;;5065786;28;20362;-75
2023/04/12 12:32:44;;;;;;;2.22;0.77;;;16.30;99.90;;;;;;5072464;28;20369;-74
2023/04/12 12:35:14;;;;;;;1.73;0.70;;;16.20;99.90;;;;;;5067502;28;20036;-75
2023/04/12 12:37:51;;;;;;;1.98;0.75;;;16.30;99.90;;;;;;5075325;28;20040;-68
2023/04/12 12:40:20;;;;;;;1.45;1.17;;;16.40;99.90;;;;;;5069218;28;20039;-75
2023/04/12 12:42:53;;;;;;;1.45;0.90;;;;;;;;;;5072336;28;20032;-75
2023/04/12 12:45:24;;;;;;;1.35;0.65;;;17.00;99.90;;;;;;5074583;28;20027;-75
2023/04/12 12:47:54;;;;;;;3.50;0.90;;;17.40;99.90;;;;;;5054081;28;20036;-75
2023/04/12 12:50:31;;;;;;;2.30;0.63;;;17.80;99.90;;;;;;5073594;28;20043;-75
2023/04/12 12:52:57;;;;;;;1.90;0.85;;;18.20;99.90;;;;;;5071436;28;20857;-75
2023/04/12 12:55:23;;;;;;;0.98;0.65;;;18.70;99.90;;;;;;5073347;28;20776;-76